< < Back
Terminal Aerodrome Forecast


Current Version              Previous Versions:   1  2  3  4  5  6  7  8  9  

Terminal Aerodrome Forecast

032
FTUS42 KJAX 061724
TAFGNV
TAF
KGNV 061724Z 0618/0718 28010G15KT P6SM SKC
     FM070200 28003KT P6SM FEW050
     FM071300 31008KT P6SM SKC=

Latest METAR

557
SAUS70 KWBC 062000 RRF
MTRGNV
METAR KGNV 061953Z 31007KT 10SM CLR 24/06 A2986 RMK AO2 SLP110
T02390056


USA.gov is the U.S. government's official web portal to all federal, state and local government web resources and services.